Spring Valley, CA (91976)

10:36 AM PDT on July 28, 2016 (GMT -0700)
Conrad/Estrella | | Change Station

Elev 560 ft 32.75 °N, 116.99 °W | Updated 1 minute ago

Clear
Clear
88.2 °F
Feels Like 89 °F
N
2.7
Wind Variable Wind from SE

Today
High -- | Low -- °F
--% Chance of Precip.
Yesterday
High -- | Low -- °F
Precip. -- in
Pressure 29.92 in
Visibility 10.0 miles
Clouds Clear
Heat Index 89 °F
Dew Point 64 °F
Humidity 44%
Rainfall 0.00 in
Snow Depth Not available.
5:59 AM 7:48 PM
Waning Crescent, 30% visible
METAR KSEE 281547Z 00000KT 10SM SKC 26/17 A2992
Pressure 29.92 in
Visibility 10.0 miles
Clouds Clear
Heat Index 89 °F
Dew Point 64 °F
Humidity 44%
Rainfall 0.00 in
Snow Depth Not available.
5:59 AM 7:48 PM
Waning Crescent, 30% visible
METAR KSEE 281547Z 00000KT 10SM SKC 26/17 A2992

10-Day Weather Forecast

Almanac

Astronomy

Jul. 28, 2016 Rise Set
Actual Time
Civil Twilight
Nautical Twilight
Astronomical Twilight
Moon
Length of Visible Light
Length of Day
Tomorrow will be .
, % of the Moon is Illuminated

Today's Extremes

State Highs State Lows

Community

WunderPhotos

Upload Photos

1,928,163 photos uploaded!

WunderBlog® & News

Nearby

Air Quality

  Air Quality AQ Index Pollutant
Not available.

Snow Depth

Station Depth Elevation

Earthquake Activity

City Distance Mag. Time & Date
Minimum magnitude displayed is 2.5.

Coastal Water Temperatures

Place Temperature

Stations

Nearby Weather Stations

Station Location Temp. Windchill Dew Point Humidity Wind Precip. Elev Updated Type
                   

Watches & Warnings

There are currently no watches in effect.